Time;durP1;ratioP1;P1;durP2;ratioP2;P2;SDS_P1;SDS_P2;PMS_P1;PMS_P2;Temp;Humidity;BMP_temperature;BMP_pressure;BME280_temperature;BME280_humidity;BME280_pressure;Samples;Min_cycle;Max_cycle;Signal;HPM_P1;HPM_P2
2023/05/24 00:00:37;;;;;;;;;4.00;3.00;;;;;15.54;46.66;101545.94;4996201;28;45501;-54
2023/05/24 00:03:04;;;;;;;;;3.67;3.67;;;;;15.56;46.60;101540.59;4996133;28;45490;-55
2023/05/24 00:05:29;;;;;;;;;4.00;4.00;;;;;15.52;46.62;101545.13;4978320;28;47979;-58
2023/05/24 00:07:55;;;;;;;;;4.00;4.00;;;;;15.36;47.67;101546.69;4996116;28;45607;-56
2023/05/24 00:10:21;;;;;;;;;3.00;3.00;;;;;15.24;47.13;101534.78;4996083;28;45472;-55
2023/05/24 00:12:46;;;;;;;;;3.67;3.67;;;;;15.27;47.06;101539.13;4995866;28;45531;-57
2023/05/24 00:15:11;;;;;;;;;5.33;3.67;;;;;15.23;48.03;101544.53;4995775;28;45448;-56
2023/05/24 00:17:39;;;;;;;;;3.67;3.67;;;;;15.11;47.91;101529.09;4995756;28;45463;-58
2023/05/24 00:20:12;;;;;;;;;4.00;4.00;;;;;15.23;48.03;101526.00;4995958;28;45476;-53
2023/05/24 00:22:39;;;;;;;;;4.33;4.33;;;;;15.27;47.17;101537.31;4995949;28;45372;-55
2023/05/24 00:25:05;;;;;;;;;6.67;4.67;;;;;15.20;47.62;101533.19;4995542;28;45457;-54
2023/05/24 00:27:31;;;;;;;;;6.67;4.67;;;;;15.14;48.59;101521.03;4995833;28;45444;-55
2023/05/24 00:29:57;;;;;;;;;5.00;3.33;;;;;15.11;48.66;101520.31;4996537;28;45496;-53
2023/05/24 00:32:22;;;;;;;;;1.00;1.00;;;;;15.09;48.55;101519.50;4995043;28;45488;-57
2023/05/24 00:34:47;;;;;;;;;4.33;3.00;;;;;15.03;48.42;101512.66;4995748;28;46343;-54
2023/05/24 00:37:13;;;;;;;;;4.67;3.33;;;;;15.02;48.56;101513.59;4995474;28;45385;-55
2023/05/24 00:39:40;;;;;;;;;7.00;5.00;;;;;15.03;49.14;101517.94;4996018;28;45442;-56
2023/05/24 00:42:05;;;;;;;;;4.67;4.67;;;;;15.06;48.66;101504.56;4995688;28;45455;-57
2023/05/24 00:44:31;;;;;;;;;5.67;3.00;;;;;15.05;48.50;101499.38;4995355;28;46184;-56
2023/05/24 00:46:56;;;;;;;;;5.00;4.00;;;;;15.00;48.95;101508.34;4995759;28;45444;-52
2023/05/24 00:49:22;;;;;;;;;4.67;3.67;;;;;15.07;48.22;101505.44;4995226;28;45488;-56
2023/05/24 00:51:50;;;;;;;;;2.67;2.00;;;;;15.00;48.52;101504.84;4995658;28;45488;-55
2023/05/24 00:54:15;;;;;;;;;5.67;5.00;;;;;15.00;48.44;101507.47;4995588;28;45521;-55
2023/05/24 00:56:42;;;;;;;;;4.67;3.67;;;;;14.96;49.04;101512.03;4995358;28;45459;-58
2023/05/24 00:59:08;;;;;;;;;3.67;3.67;;;;;15.03;48.72;101510.00;4978304;28;45434;-52
2023/05/24 01:01:34;;;;;;;;;3.00;3.00;;;;;14.94;48.21;101498.00;4995282;28;45444;-53
2023/05/24 01:04:00;;;;;;;;;3.00;3.00;;;;;15.01;49.38;101498.59;4995057;28;46226;-56
2023/05/24 01:06:26;;;;;;;;;6.67;4.67;;;;;14.88;49.20;101492.06;4995498;28;45448;-52
2023/05/24 01:09:07;;;;;;;;;4.00;4.00;;;;;14.89;48.94;101499.94;4995629;28;45444;-56
2023/05/24 01:11:54;;;;;;;;;5.33;3.33;;;;;14.94;48.99;101499.78;4995352;28;45445;-53
2023/05/24 01:14:34;;;;;;;;;5.00;4.00;;;;;14.89;49.27;101496.44;4995176;28;46705;-57
2023/05/24 01:17:12;;;;;;;;;4.00;4.00;;;;;14.90;49.11;101506.97;4995165;28;45333;-55
2023/05/24 01:19:52;;;;;;;;;3.33;3.33;;;;;14.88;49.83;101507.94;4995432;28;45398;-58
2023/05/24 01:22:51;;;;;;;;;5.00;5.00;;;;;14.92;48.92;101509.56;4995152;28;45683;-56
2023/05/24 01:25:40;;;;;;;;;3.33;3.33;;;;;14.86;49.30;101509.81;4994524;28;45614;-54
2023/05/24 01:28:07;;;;;;;;;4.00;4.00;;;;;14.76;49.38;101509.28;4993817;28;45471;-55
2023/05/24 01:30:35;;;;;;;;;4.67;4.67;;;;;14.64;50.58;101509.75;4995503;28;45540;-55
2023/05/24 01:33:00;;;;;;;;;4.00;4.00;;;;;14.67;50.13;101499.91;4977365;28;45587;-56
2023/05/24 01:35:25;;;;;;;;;7.00;4.67;;;;;14.64;49.81;101494.75;4994620;28;46022;-56
2023/05/24 01:37:51;;;;;;;;;5.67;4.33;;;;;14.65;49.21;101501.75;4994848;28;45389;-52
2023/05/24 01:40:17;;;;;;;;;4.33;4.33;;;;;14.55;50.22;101508.31;4993663;28;45444;-53
2023/05/24 01:43:01;;;;;;;;;4.33;4.33;;;;;14.47;49.57;101503.25;4995019;28;45684;-53
2023/05/24 01:45:44;;;;;;;;;7.00;4.00;;;;;14.43;51.32;101517.53;4998172;28;46409;-56
2023/05/24 01:48:20;;;;;;;;;5.33;5.33;;;;;14.32;51.14;101519.72;4986868;28;45477;-54
2023/05/24 01:50:57;;;;;;;;;6.33;6.33;;;;;14.16;51.36;101508.81;4998155;28;45428;-54
2023/05/24 01:53:25;;;;;;;;;4.67;4.67;;;;;14.21;51.80;101509.53;4997995;28;45663;-56
2023/05/24 01:55:55;;;;;;;;;9.33;6.33;;;;;14.26;50.94;101507.56;4991213;28;45395;-57
2023/05/24 01:58:23;;;;;;;;;7.67;7.00;;;;;14.36;51.37;101516.03;4997937;28;45408;-55
2023/05/24 02:00:49;;;;;;;;;5.33;5.33;;;;;14.36;51.07;101506.31;4998107;28;45496;-57
2023/05/24 02:03:15;;;;;;;;;5.00;4.00;;;;;14.32;51.00;101506.50;4997979;28;45707;-54
2023/05/24 02:05:43;;;;;;;;;8.67;6.00;;;;;14.31;51.10;101525.91;4997798;28;46391;-58
2023/05/24 02:08:08;;;;;;;;;5.00;3.67;;;;;14.26;50.96;101496.97;4997678;28;45432;-53
2023/05/24 02:10:33;;;;;;;;;5.00;5.00;;;;;14.40;51.04;101509.72;4997910;28;45384;-54
2023/05/24 02:12:59;;;;;;;;;6.33;5.67;;;;;14.33;51.18;101524.94;4997603;28;45558;-55
2023/05/24 02:15:25;;;;;;;;;3.00;3.00;;;;;14.23;51.15;101523.53;4998007;28;46290;-57
2023/05/24 02:17:53;;;;;;;;;5.33;5.33;;;;;14.26;50.97;101510.19;4997844;28;45935;-54
2023/05/24 02:20:21;;;;;;;;;6.33;5.67;;;;;14.25;51.54;101507.63;4997719;28;45497;-53
2023/05/24 02:22:49;;;;;;;;;6.00;4.00;;;;;14.27;51.58;101505.78;4997831;28;45449;-56
2023/05/24 02:25:15;;;;;;;;;6.00;6.00;;;;;14.30;51.50;101516.25;4997139;28;45500;-57
2023/05/24 02:27:40;;;;;;;;;5.33;5.33;;;;;14.26;52.04;101510.19;4979755;28;45466;-53
2023/05/24 02:30:07;;;;;;;;;7.67;7.33;;;;;14.33;51.62;101514.34;4998165;28;45451;-55
2023/05/24 02:32:33;;;;;;;;;7.00;6.00;;;;;14.32;51.79;101515.28;4997624;28;45404;-54
2023/05/24 02:35:00;;;;;;;;;7.33;5.00;;;;;14.24;50.66;101505.88;4979755;28;47159;-57
2023/05/24 02:37:28;;;;;;;;;6.33;4.67;;;;;14.18;52.01;101516.69;4997483;28;45457;-54
2023/05/24 02:39:54;;;;;;;;;5.00;5.00;;;;;14.17;51.22;101509.69;4997717;28;45400;-53
2023/05/24 02:42:19;;;;;;;;;8.33;6.33;;;;;14.23;51.59;101515.59;4979597;28;45491;-57
2023/05/24 02:44:48;;;;;;;;;6.00;6.00;;;;;14.24;51.74;101517.34;4978903;28;45394;-55
2023/05/24 02:47:14;;;;;;;;;6.00;4.67;;;;;14.26;51.78;101514.63;4997349;28;45559;-55
2023/05/24 02:49:40;;;;;;;;;5.00;4.00;;;;;14.26;52.02;101512.84;4997456;28;45457;-53
2023/05/24 02:52:05;;;;;;;;;8.67;8.67;;;;;14.29;51.54;101511.88;4997110;28;45621;-57
2023/05/24 02:54:31;;;;;;;;;7.00;7.00;;;;;14.26;51.93;101512.84;4997308;28;46362;-52
2023/05/24 02:56:56;;;;;;;;;6.00;6.00;;;;;14.27;51.09;101505.78;4996741;28;45526;-57
2023/05/24 02:59:22;;;;;;;;;8.67;7.00;;;;;14.20;51.52;101497.19;4997092;28;45562;-53
2023/05/24 03:01:48;;;;;;;;;9.00;6.67;;;;;14.13;52.45;101499.22;4997078;28;45511;-57
2023/05/24 03:04:13;;;;;;;;;5.00;5.00;;;;;14.09;51.97;101499.38;4996577;28;45511;-55
2023/05/24 03:06:39;;;;;;;;;5.67;5.67;;;;;14.14;52.07;101497.44;4997029;28;45495;-54
2023/05/24 03:09:04;;;;;;;;;5.33;5.33;;;;;14.14;52.13;101493.00;4997111;28;45421;-57
2023/05/24 03:11:29;;;;;;;;;5.67;5.33;;;;;14.12;51.66;101480.75;4997014;28;45538;-53
2023/05/24 03:13:55;;;;;;;;;6.00;6.00;;;;;14.10;52.34;101480.81;4996496;28;54850;-57
2023/05/24 03:16:20;;;;;;;;;7.67;6.33;;;;;14.13;51.93;101483.34;4996728;28;45337;-55
2023/05/24 03:18:45;;;;;;;;;7.67;7.67;;;;;14.08;52.33;101480.00;4996346;28;60305;-57
2023/05/24 03:21:11;;;;;;;;;6.00;4.33;;;;;14.16;52.67;101487.66;4997042;28;45567;-54
2023/05/24 03:23:36;;;;;;;;;7.33;5.33;;;;;14.18;52.14;101487.59;4996501;28;45602;-57
2023/05/24 03:26:01;;;;;;;;;6.00;6.00;;;;;14.19;51.88;101492.84;4996821;28;45440;-57
2023/05/24 03:28:27;;;;;;;;;8.33;6.67;;;;;14.19;51.81;101484.91;4996714;28;45835;-54
2023/05/24 03:30:52;;;;;;;;;7.67;7.33;;;;;14.12;51.74;101486.88;4997048;28;45348;-53
2023/05/24 03:33:18;;;;;;;;;9.67;8.00;;;;;14.11;52.46;101485.19;4996439;28;45501;-58
2023/05/24 03:35:43;;;;;;;;;6.67;6.67;;;;;14.05;52.19;101484.50;4996620;28;45389;-53
2023/05/24 03:38:08;;;;;;;;;6.00;6.00;;;;;13.97;52.65;101486.56;4996421;28;45860;-55
2023/05/24 03:40:35;;;;;;;;;6.33;6.00;;;;;13.97;52.82;101487.47;4996526;28;45518;-54
2023/05/24 03:43:00;;;;;;;;;7.00;6.67;;;;;14.01;52.88;101477.63;4996454;28;46503;-56
2023/05/24 03:45:26;;;;;;;;;8.00;6.33;;;;;13.91;52.86;101487.66;4996290;28;45563;-53
2023/05/24 03:47:51;;;;;;;;;5.00;5.00;;;;;13.97;52.23;101491.84;4996593;28;45382;-56
2023/05/24 03:50:16;;;;;;;;;6.67;6.67;;;;;14.04;52.87;101496.03;4978696;28;45460;-52
2023/05/24 03:52:42;;;;;;;;;9.00;7.00;;;;;14.08;52.73;101490.56;4996150;28;46398;-56
2023/05/24 03:55:07;;;;;;;;;12.00;8.00;;;;;14.10;52.13;101491.41;4996035;28;49618;-54
2023/05/24 03:57:33;;;;;;;;;8.00;8.00;;;;;14.10;52.04;101498.44;4996181;28;45575;-52
2023/05/24 03:59:59;;;;;;;;;9.00;8.00;;;;;14.08;52.26;101495.00;4996528;28;45334;-56
2023/05/24 04:02:25;;;;;;;;;5.00;5.00;;;;;14.08;52.43;101495.88;4995757;28;45666;-53
2023/05/24 04:04:50;;;;;;;;;8.67;8.00;;;;;14.11;51.92;101500.19;4996041;28;45381;-58
2023/05/24 04:07:16;;;;;;;;;8.33;5.67;;;;;13.96;52.95;101498.94;4995213;28;45444;-53
2023/05/24 04:09:41;;;;;;;;;11.67;9.00;;;;;14.01;52.26;101515.50;4995994;28;45674;-53
2023/05/24 04:12:07;;;;;;;;;10.00;8.67;;;;;13.95;52.50;101502.50;4978137;28;46604;-55
2023/05/24 04:14:32;;;;;;;;;8.67;8.67;;;;;13.91;53.06;101517.59;4995426;28;57716;-51
2023/05/24 04:16:57;;;;;;;;;9.33;5.33;;;;;13.86;52.56;101519.56;4996096;28;45626;-55
2023/05/24 04:19:23;;;;;;;;;5.00;5.00;;;;;13.82;52.57;101514.41;4995621;28;45427;-55
2023/05/24 04:21:48;;;;;;;;;7.33;6.33;;;;;13.82;53.45;101503.84;4996000;28;47570;-52
2023/05/24 04:24:14;;;;;;;;;6.33;5.67;;;;;13.84;53.23;101513.47;4977877;28;45496;-54
2023/05/24 04:26:39;;;;;;;;;8.67;6.00;;;;;13.79;53.29;101507.47;4995800;28;45384;-56
2023/05/24 04:29:06;;;;;;;;;7.00;7.00;;;;;13.80;53.02;101518.88;4996387;28;45571;-56
2023/05/24 04:31:33;;;;;;;;;7.00;7.00;;;;;13.80;52.82;101526.81;4995343;28;46033;-52
2023/05/24 04:33:58;;;;;;;;;7.33;5.67;;;;;13.80;52.51;101525.03;4995825;28;45381;-54
2023/05/24 04:36:24;;;;;;;;;7.33;6.00;;;;;13.76;53.13;101530.50;4995577;28;45444;-53
2023/05/24 04:38:52;;;;;;;;;4.67;4.67;;;;;13.71;53.00;101522.72;4995920;28;45416;-55
2023/05/24 04:41:18;;;;;;;;;10.00;7.33;;;;;13.79;52.90;101530.41;4995467;28;45431;-53
2023/05/24 04:43:44;;;;;;;;;5.33;5.33;;;;;13.84;52.57;101533.75;4995394;28;45464;-57
2023/05/24 04:46:09;;;;;;;;;4.67;4.00;;;;;13.84;52.27;101534.59;4995445;28;45415;-52
2023/05/24 04:48:35;;;;;;;;;5.33;4.67;;;;;13.79;52.84;101541.81;4995455;28;45420;-55
2023/05/24 04:51:00;;;;;;;;;9.67;5.67;;;;;13.74;52.75;101538.47;4995214;28;45551;-54
2023/05/24 04:53:26;;;;;;;;;4.33;4.00;;;;;13.64;52.80;101544.97;4995393;28;45569;-53
2023/05/24 04:55:52;;;;;;;;;5.00;5.00;;;;;13.63;52.75;101544.13;4995615;28;45520;-55
2023/05/24 04:58:18;;;;;;;;;8.00;6.67;;;;;13.67;52.76;101540.47;4995391;28;45650;-54
2023/05/24 05:00:43;;;;;;;;;8.00;7.00;;;;;13.69;52.57;101548.34;4995075;28;45447;-54
2023/05/24 05:03:09;;;;;;;;;5.00;5.00;;;;;13.63;52.49;101544.13;4995241;28;45527;-55
2023/05/24 05:05:34;;;;;;;;;11.33;8.00;;;;;13.72;52.38;101540.28;4995402;28;45444;-54
2023/05/24 05:08:00;;;;;;;;;7.33;5.33;;;;;13.72;52.75;101553.50;4993927;28;45400;-57
2023/05/24 05:10:26;;;;;;;;;5.33;5.33;;;;;13.69;52.70;101550.97;4995215;28;45437;-56
2023/05/24 05:12:51;;;;;;;;;6.67;6.67;;;;;13.66;52.27;101545.78;4994848;28;45411;-53
2023/05/24 05:15:16;;;;;;;;;4.67;4.67;;;;;13.75;52.66;101556.06;4995288;28;45455;-54
2023/05/24 05:17:42;;;;;;;;;7.00;7.00;;;;;13.78;52.64;101555.09;4995056;28;45666;-56
2023/05/24 05:20:07;;;;;;;;;10.00;8.33;;;;;13.84;52.54;101552.25;4997967;28;45775;-53
2023/05/24 05:22:33;;;;;;;;;5.67;5.67;;;;;13.86;51.92;101548.66;4998613;28;45413;-53
2023/05/24 05:24:59;;;;;;;;;8.67;6.00;;;;;13.87;52.38;101546.88;4980662;28;45422;-55
2023/05/24 05:27:25;;;;;;;;;6.00;6.00;;;;;13.94;52.07;101545.72;4998588;28;45506;-56
2023/05/24 05:29:50;;;;;;;;;7.67;7.33;;;;;13.89;52.11;101537.97;4998660;28;47153;-52
2023/05/24 05:32:15;;;;;;;;;5.00;3.67;;;;;13.93;51.80;101544.84;4998266;28;45442;-53
2023/05/24 05:34:41;;;;;;;;;8.67;6.67;;;;;13.85;52.17;101541.63;4998227;28;45693;-52
2023/05/24 05:37:06;;;;;;;;;9.33;8.00;;;;;13.78;52.60;101544.50;4998535;28;45551;-53
2023/05/24 05:39:32;;;;;;;;;8.67;7.67;;;;;13.78;52.26;101539.22;4998240;28;46830;-55
2023/05/24 05:41:57;;;;;;;;;8.00;8.00;;;;;13.81;52.22;101541.75;4998106;28;45387;-55
2023/05/24 05:44:22;;;;;;;;;6.00;6.00;;;;;13.78;52.34;101536.59;4998324;28;45567;-53
2023/05/24 05:46:48;;;;;;;;;7.50;7.50;;;;;13.77;52.23;101546.28;4998085;28;45605;-52
2023/05/24 05:49:14;;;;;;;;;7.67;6.33;;;;;13.81;52.22;101547.03;4997988;28;45439;-54
2023/05/24 05:51:40;;;;;;;;;7.67;7.67;;;;;13.79;52.20;101530.41;4997808;28;45405;-55
2023/05/24 05:54:13;;;;;;;;;9.00;6.00;;;;;13.91;52.05;101548.47;4998156;28;45500;-56
2023/05/24 05:56:44;;;;;;;;;8.33;8.00;;;;;13.93;52.70;101538.72;4997928;28;45483;-54
2023/05/24 05:59:10;;;;;;;;;9.00;8.00;;;;;14.01;52.24;101552.53;4997703;28;47040;-57
2023/05/24 06:01:35;;;;;;;;;7.67;6.00;;;;;14.09;52.19;101554.91;4980152;28;45420;-54
2023/05/24 06:04:00;;;;;;;;;9.33;8.67;;;;;14.04;51.85;101548.94;4997944;28;45481;-56
2023/05/24 06:06:26;;;;;;;;;8.33;7.00;;;;;14.00;51.79;101544.69;4998054;28;45451;-54
2023/05/24 06:08:51;;;;;;;;;9.00;7.00;;;;;14.01;52.20;101546.38;4997509;28;51324;-55
2023/05/24 06:11:16;;;;;;;;;10.33;8.33;;;;;14.01;51.90;101541.97;4963619;28;45482;-52
2023/05/24 06:13:42;;;;;;;;;9.33;7.00;;;;;14.08;52.61;101554.06;4997759;28;46772;-56
2023/05/24 06:16:07;;;;;;;;;7.33;6.00;;;;;14.12;52.37;101544.22;4997692;28;45670;-53
2023/05/24 06:18:33;;;;;;;;;7.33;7.33;;;;;14.20;51.28;101549.25;4997374;28;46120;-55
2023/05/24 06:20:58;;;;;;;;;6.67;6.33;;;;;14.13;51.83;101551.22;4979953;28;45494;-56
2023/05/24 06:23:24;;;;;;;;;8.67;6.00;;;;;14.07;51.69;101552.31;4997396;28;45479;-54
2023/05/24 06:25:49;;;;;;;;;9.67;8.33;;;;;14.12;52.02;101560.97;4980036;28;45417;-55
2023/05/24 06:28:14;;;;;;;;;7.00;7.00;;;;;14.20;51.57;101562.50;4997156;28;45621;-54
2023/05/24 06:30:40;;;;;;;;;10.00;8.67;;;;;14.22;51.88;101568.59;4997003;28;45367;-57
2023/05/24 06:33:05;;;;;;;;;7.00;5.00;;;;;14.25;52.13;101566.69;4997335;28;45437;-55
2023/05/24 06:35:30;;;;;;;;;6.33;6.33;;;;;14.29;51.57;101572.72;4997618;28;45416;-55
2023/05/24 06:37:56;;;;;;;;;10.00;6.00;;;;;14.24;51.42;101572.03;4979441;28;45461;-56
2023/05/24 06:40:22;;;;;;;;;10.00;7.00;;;;;14.23;52.18;101573.81;4997111;28;45420;-56
2023/05/24 06:42:47;;;;;;;;;8.33;8.33;;;;;14.17;52.08;101574.03;4997699;28;45363;-57
2023/05/24 06:45:13;;;;;;;;;7.00;6.33;;;;;14.17;51.32;101570.53;4997497;28;45649;-56
2023/05/24 06:47:39;;;;;;;;;5.67;4.67;;;;;14.20;51.43;101575.72;4997390;28;45514;-54
2023/05/24 06:50:05;;;;;;;;;11.00;7.33;;;;;14.22;51.88;101568.59;4996701;28;52784;-57
2023/05/24 06:52:30;;;;;;;;;7.00;7.00;;;;;14.29;52.12;101564.78;4997361;28;45351;-57
2023/05/24 06:54:55;;;;;;;;;7.67;7.67;;;;;14.34;51.96;101568.16;4997291;28;45369;-55
2023/05/24 06:57:21;;;;;;;;;11.33;11.00;;;;;14.34;51.34;101570.78;4996535;28;50662;-57
2023/05/24 06:59:46;;;;;;;;;7.33;6.33;;;;;14.35;50.91;101578.69;4996955;28;45367;-56
2023/05/24 07:02:11;;;;;;;;;9.67;8.33;;;;;14.28;51.70;101581.59;4997010;28;45677;-54
2023/05/24 07:04:39;;;;;;;;;10.00;8.67;;;;;14.23;52.03;101578.25;4997011;28;45580;-54
2023/05/24 07:07:05;;;;;;;;;11.00;6.00;;;;;14.30;51.57;101570.03;4996965;28;46567;-52
2023/05/24 07:09:30;;;;;;;;;11.33;7.33;;;;;14.39;52.18;101581.22;4996759;28;45315;-53
2023/05/24 07:11:56;;;;;;;;;8.67;6.33;;;;;14.43;51.35;101582.84;4996828;28;45381;-55
2023/05/24 07:14:24;;;;;;;;;9.00;7.00;;;;;14.50;51.55;101584.34;4996704;28;45317;-55
2023/05/24 07:16:50;;;;;;;;;10.00;8.33;;;;;14.47;51.18;101568.56;4996711;28;46709;-52
2023/05/24 07:19:15;;;;;;;;;9.00;7.33;;;;;14.46;50.70;101575.66;4996510;28;45570;-53
2023/05/24 07:21:40;;;;;;;;;7.00;7.00;;;;;14.46;51.15;101585.38;4996717;28;45490;-54
2023/05/24 07:24:06;;;;;;;;;8.33;7.00;;;;;14.42;50.79;101581.97;4995333;28;49156;-52
2023/05/24 07:26:32;;;;;;;;;7.67;6.00;;;;;14.50;50.39;101587.00;4996294;28;46611;-54
2023/05/24 07:28:57;;;;;;;;;9.00;7.00;;;;;14.47;50.85;101572.09;4996628;28;45978;-56
2023/05/24 07:31:22;;;;;;;;;7.33;7.33;;;;;14.53;51.13;101574.56;4996869;28;45461;-56
2023/05/24 07:33:47;;;;;;;;;6.67;6.33;;;;;14.60;50.73;101580.50;4996810;28;45511;-54
2023/05/24 07:36:13;;;;;;;;;5.00;5.00;;;;;14.60;49.98;101584.91;4996459;28;46705;-55
2023/05/24 07:38:39;;;;;;;;;6.33;6.00;;;;;14.57;50.45;101578.81;4996226;28;45456;-53
2023/05/24 07:41:06;;;;;;;;;7.67;6.33;;;;;14.63;50.50;101587.44;4996635;28;45478;-56
2023/05/24 07:43:31;;;;;;;;;8.00;8.00;;;;;14.59;50.10;101578.78;4996522;28;45330;-54
2023/05/24 07:45:57;;;;;;;;;6.00;6.00;;;;;14.64;49.74;101582.13;4996268;28;45763;-54
2023/05/24 07:48:23;;;;;;;;;6.00;4.67;;;;;14.66;49.84;101582.91;4996286;28;45376;-55
2023/05/24 07:50:49;;;;;;;;;8.00;6.67;;;;;14.75;49.76;101587.88;4996476;28;45399;-57
2023/05/24 07:53:15;;;;;;;;;8.67;6.00;;;;;14.70;50.21;101589.81;4996164;28;45465;-55
2023/05/24 07:55:40;;;;;;;;;10.00;7.33;;;;;14.65;49.49;101596.22;4996074;28;45415;-54
2023/05/24 07:58:06;;;;;;;;;10.67;8.00;;;;;14.66;49.91;101593.50;4995404;28;45442;-57
2023/05/24 08:00:32;;;;;;;;;8.33;6.67;;;;;14.63;49.65;101596.25;4996155;28;45431;-53
2023/05/24 08:03:00;;;;;;;;;6.33;6.00;;;;;14.65;50.04;101586.47;4996018;28;45431;-54
2023/05/24 08:05:26;;;;;;;;;9.00;8.33;;;;;14.77;50.30;101593.09;4995995;28;45442;-54
2023/05/24 08:07:52;;;;;;;;;8.00;6.00;;;;;14.83;50.18;101592.00;4995699;28;45472;-54
2023/05/24 08:10:17;;;;;;;;;10.67;9.33;;;;;14.93;49.69;101599.53;4996251;28;45475;-53
2023/05/24 08:12:43;;;;;;;;;6.33;6.00;;;;;14.95;49.45;101595.06;4995832;28;45373;-56
2023/05/24 08:15:09;;;;;;;;;6.00;5.67;;;;;14.95;49.54;101586.25;4995887;28;45466;-54
2023/05/24 08:17:35;;;;;;;;;7.00;5.00;;;;;15.05;49.23;101598.25;4995926;28;45370;-57
2023/05/24 08:20:02;;;;;;;;;7.33;5.67;;;;;15.09;49.01;101583.94;4995717;28;45518;-55
2023/05/24 08:22:27;;;;;;;;;10.33;7.67;;;;;15.13;49.60;101587.34;4995878;28;45631;-56
2023/05/24 08:24:52;;;;;;;;;6.00;6.00;;;;;15.13;48.57;101582.91;4995199;28;55363;-55
2023/05/24 08:27:18;;;;;;;;;4.33;4.33;;;;;15.22;47.72;101590.50;4995735;28;45515;-56
2023/05/24 08:29:43;;;;;;;;;7.00;6.00;;;;;15.29;48.74;101600.88;4996100;28;45539;-55
2023/05/24 08:32:08;;;;;;;;;7.00;6.00;;;;;15.28;48.13;101592.03;4995334;28;51046;-55
2023/05/24 08:34:36;;;;;;;;;4.33;4.33;;;;;15.37;48.10;101601.44;4995662;28;45415;-55
2023/05/24 08:37:02;;;;;;;;;8.67;6.00;;;;;15.40;47.10;101590.72;4995421;28;45388;-56
2023/05/24 08:39:27;;;;;;;;;11.33;6.67;;;;;15.46;47.63;101593.13;4995576;28;45434;-57
2023/05/24 08:41:53;;;;;;;;;10.00;6.67;;;;;15.46;46.78;101582.50;4994907;28;54936;-54
2023/05/24 08:44:21;;;;;;;;;6.67;5.33;;;;;15.47;47.05;101578.91;4995507;28;45847;-56
2023/05/24 08:46:47;;;;;;;;;7.67;5.00;;;;;15.51;46.61;101577.88;4995158;28;45650;-54
2023/05/24 08:49:14;;;;;;;;;4.00;3.33;;;;;15.54;46.01;101588.38;4995370;28;45575;-55
2023/05/24 08:51:40;;;;;;;;;5.00;5.00;;;;;15.58;45.78;101578.50;4995256;28;45547;-56
2023/05/24 08:54:06;;;;;;;;;9.00;6.00;;;;;15.62;45.41;101585.41;4994435;28;45369;-55
2023/05/24 08:56:33;;;;;;;;;3.00;3.00;;;;;15.63;45.44;101585.31;4995348;28;45606;-56
2023/05/24 08:58:58;;;;;;;;;4.00;4.00;;;;;15.61;44.90;101567.78;4995051;28;45400;-54
2023/05/24 09:01:24;;;;;;;;;5.33;4.00;;;;;15.71;43.72;101579.75;4995057;28;45304;-57
2023/05/24 09:03:50;;;;;;;;;3.33;3.33;;;;;15.66;42.68;101574.63;4994104;28;45415;-55
2023/05/24 09:06:17;;;;;;;;;4.67;4.67;;;;;15.72;42.64;101578.84;4994804;28;45562;-56
2023/05/24 09:08:43;;;;;;;;;5.00;4.67;;;;;15.72;42.27;101567.38;4995074;28;45380;-55
2023/05/24 09:11:10;;;;;;;;;4.67;4.67;;;;;15.77;42.92;101575.97;4977443;28;45502;-57
2023/05/24 09:13:36;;;;;;;;;4.00;3.00;;;;;15.77;41.91;101575.97;4994916;28;45672;-57
2023/05/24 09:16:01;;;;;;;;;4.33;3.67;;;;;15.75;41.59;101572.56;4995123;28;45396;-53
2023/05/24 09:18:27;;;;;;;;;4.67;4.67;;;;;15.82;41.39;101571.34;4995055;28;45417;-55
2023/05/24 09:20:53;;;;;;;;;2.67;2.67;;;;;15.83;41.05;101568.66;4995046;28;45635;-53
2023/05/24 09:23:18;;;;;;;;;5.00;5.00;;;;;15.88;41.69;101581.72;4994637;28;45911;-52
2023/05/24 09:25:46;;;;;;;;;5.67;5.00;;;;;15.84;40.42;101561.53;4995030;28;45520;-56
2023/05/24 09:28:16;;;;;;;;;6.00;5.00;;;;;15.88;40.40;101568.47;4994959;28;45546;-56
2023/05/24 09:30:57;;;;;;;;;5.33;3.00;;;;;15.87;39.79;101575.53;4995728;28;45418;-58
2023/05/24 09:33:22;;;;;;;;;3.33;3.33;;;;;15.87;39.63;101570.22;4994644;28;45599;-56
2023/05/24 09:35:48;;;;;;;;;2.67;2.67;;;;;15.74;39.81;101546.94;4994779;28;45491;-56
2023/05/24 09:38:19;;;;;;;;;2.00;2.00;;;;;15.87;40.33;101558.75;4994992;28;45380;-56
2023/05/24 09:40:45;;;;;;;;;8.67;6.00;;;;;15.92;40.24;101563.88;4995041;28;45459;-57
2023/05/24 09:43:11;;;;;;;;;4.00;3.00;;;;;16.01;39.86;101561.72;4994630;28;45372;-52
2023/05/24 09:45:45;;;;;;;;;2.00;2.00;;;;;16.05;39.27;101560.63;4976951;28;45476;-58
2023/05/24 09:48:17;;;;;;;;;3.00;2.67;;;;;16.10;39.18;101569.25;4994844;28;45460;-58
2023/05/24 09:50:46;;;;;;;;;3.33;3.33;;;;;16.12;39.27;101567.41;4994794;28;45395;-53
2023/05/24 09:53:11;;;;;;;;;4.00;3.00;;;;;16.18;40.02;101566.28;4994536;28;46014;-56
2023/05/24 09:55:37;;;;;;;;;3.33;3.00;;;;;16.20;38.70;101569.75;4994402;28;45516;-56
2023/05/24 09:58:07;;;;;;;;;4.33;2.33;;;;;16.25;38.35;101573.03;4994760;28;45430;-52
2023/05/24 10:00:35;;;;;;;;;4.00;3.00;;;;;16.29;39.02;101560.50;4994507;28;45455;-54
2023/05/24 10:03:02;;;;;;;;;2.00;2.00;;;;;16.38;38.71;101567.19;4994251;28;45531;-54
2023/05/24 10:05:28;;;;;;;;;1.33;1.33;;;;;16.42;38.23;101563.50;4994815;28;45407;-55
2023/05/24 10:07:55;;;;;;;;;1.67;1.67;;;;;16.47;39.04;101565.00;4997797;28;45455;-55
2023/05/24 10:10:21;;;;;;;;;3.33;3.33;;;;;16.53;38.27;101559.41;4997906;28;45630;-54
2023/05/24 10:12:47;;;;;;;;;2.33;2.33;;;;;16.53;37.84;101554.09;4997516;28;46584;-54
2023/05/24 10:15:13;;;;;;;;;3.00;3.00;;;;;16.59;38.12;101549.44;4995774;28;58109;-53
2023/05/24 10:17:38;;;;;;;;;4.00;3.67;;;;;16.57;37.86;101538.88;4997681;28;45387;-55
2023/05/24 10:20:05;;;;;;;;;4.67;4.00;;;;;16.65;37.03;101551.81;4997712;28;45609;-56
2023/05/24 10:22:36;;;;;;;;;3.67;2.67;;;;;16.69;37.20;101556.06;4997388;28;45497;-56
2023/05/24 10:25:05;;;;;;;;;2.00;2.00;;;;;16.72;36.09;101555.94;4997069;28;45490;-55
2023/05/24 10:27:32;;;;;;;;;2.00;2.00;;;;;16.72;36.54;101550.63;4997238;28;45485;-57
2023/05/24 10:30:13;;;;;;;;;2.33;1.33;;;;;16.75;34.96;101556.63;4997757;28;45610;-55
2023/05/24 10:32:41;;;;;;;;;4.00;4.00;;;;;16.72;36.18;101538.19;4997127;28;45397;-57
2023/05/24 10:35:11;;;;;;;;;4.67;4.67;;;;;16.85;36.10;101548.31;4996877;28;45456;-55
2023/05/24 10:37:36;;;;;;;;;2.00;2.00;;;;;16.87;34.63;101539.31;4997038;28;45440;-55
2023/05/24 10:40:04;;;;;;;;;1.00;1.00;;;;;16.87;35.02;101535.78;4997141;28;45337;-50
2023/05/24 10:42:31;;;;;;;;;2.33;2.33;;;;;16.88;34.83;101542.84;4978815;28;45606;-59
2023/05/24 10:44:56;;;;;;;;;4.33;3.33;;;;;16.85;34.86;101535.88;4996985;28;45641;-54
2023/05/24 10:47:27;;;;;;;;;2.00;2.00;;;;;16.90;34.77;101535.63;4997138;28;45435;-55
2023/05/24 10:50:03;;;;;;;;;2.33;2.33;;;;;16.91;34.90;101535.56;4997087;28;45363;-57
2023/05/24 10:52:35;;;;;;;;;3.67;3.67;;;;;16.91;34.97;101546.19;4978983;28;47434;-58
2023/05/24 10:55:03;;;;;;;;;3.67;3.67;;;;;16.99;35.64;101548.50;4996963;28;45366;-57
2023/05/24 10:57:30;;;;;;;;;3.00;3.00;;;;;16.99;36.15;101545.84;4996910;28;45370;-54
2023/05/24 10:59:57;;;;;;;;;4.33;3.00;;;;;17.04;35.10;101541.19;4996964;28;45660;-54
2023/05/24 11:02:27;;;;;;;;;5.67;3.33;;;;;17.09;35.23;101555.13;4996378;28;45503;-57
2023/05/24 11:04:55;;;;;;;;;3.00;2.00;;;;;17.08;34.94;101529.44;4996832;28;45441;-54
2023/05/24 11:07:20;;;;;;;;;5.33;4.00;;;;;17.18;35.23;101536.06;4996770;28;45447;-57
2023/05/24 11:09:54;;;;;;;;;2.33;2.33;;;;;17.27;35.12;101545.38;4996662;28;45428;-56
2023/05/24 11:12:20;;;;;;;;;2.67;2.67;;;;;17.28;34.29;101528.50;4996554;28;45479;-56
2023/05/24 11:14:50;;;;;;;;;3.33;3.33;;;;;17.36;34.11;101538.78;4996262;28;45563;-52
2023/05/24 11:17:19;;;;;;;;;5.67;3.00;;;;;17.40;34.03;101535.03;4996153;28;45486;-58
2023/05/24 11:19:48;;;;;;;;;2.00;2.00;;;;;17.39;34.14;101542.16;4996327;28;45520;-54
2023/05/24 11:22:14;;;;;;;;;4.00;4.00;;;;;17.40;34.24;101550.97;4996019;28;46422;-54